Time;durP1;ratioP1;P1;durP2;ratioP2;P2;SDS_P1;SDS_P2;PMS_P1;PMS_P2;Temp;Humidity;BMP_temperature;BMP_pressure;BME280_temperature;BME280_humidity;BME280_pressure;Samples;Min_cycle;Max_cycle;Signal;HPM_P1;HPM_P2
2023/04/23 00:01:57;;;;;;;9.18;7.10;;;;;;;13.20;100.00;99893.47;5018341;28;20213;-64
2023/04/23 00:04:24;;;;;;;7.53;6.70;;;;;;;13.13;100.00;99884.50;5017187;28;20042;-64
2023/04/23 00:06:51;;;;;;;8.25;6.32;;;;;;;13.34;100.00;99892.72;5018291;28;20350;-63
2023/04/23 00:09:17;;;;;;;8.20;6.25;;;;;;;13.35;100.00;99893.53;5017424;28;20419;-64
2023/04/23 00:11:43;;;;;;;9.95;6.43;;;;;;;13.23;100.00;99900.25;5018909;28;20326;-63
2023/04/23 00:14:10;;;;;;;7.72;6.13;;;;;;;12.98;100.00;99892.38;5019228;28;20046;-64
2023/04/23 00:16:36;;;;;;;7.97;6.22;;;;;;;12.90;100.00;99895.09;5018148;28;20432;-63
2023/04/23 00:19:01;;;;;;;8.05;6.13;;;;;;;12.78;100.00;99893.81;5019674;28;20378;-64
2023/04/23 00:21:27;;;;;;;7.10;5.75;;;;;;;12.60;100.00;99893.22;5018585;28;20029;-64
2023/04/23 00:23:52;;;;;;;10.85;6.35;;;;;;;12.21;100.00;99896.59;5018918;28;20388;-63
2023/04/23 00:26:18;;;;;;;8.23;6.28;;;;;;;12.06;100.00;99890.31;5018940;28;20037;-64
2023/04/23 00:28:43;;;;;;;10.35;6.25;;;;;;;12.08;100.00;99888.34;5019840;28;20038;-64
2023/04/23 00:31:09;;;;;;;9.13;6.50;;;;;;;12.01;100.00;99897.97;5019238;28;20038;-63
2023/04/23 00:33:34;;;;;;;9.13;6.57;;;;;;;11.79;100.00;99892.34;5018289;28;20045;-63
2023/04/23 00:36:00;;;;;;;10.25;6.20;;;;;;;11.74;100.00;99899.94;5018448;28;20332;-64
2023/04/23 00:38:25;;;;;;;11.23;6.47;;;;;;;11.63;100.00;99892.31;5018605;28;20038;-64
2023/04/23 00:40:51;;;;;;;8.20;5.65;;;;;;;11.59;100.00;99892.81;5017491;28;20029;-64
2023/04/23 00:43:18;;;;;;;9.48;5.45;;;;;;;11.68;100.00;99897.13;5017952;28;20048;-64
2023/04/23 00:45:43;;;;;;;10.55;6.10;;;;;;;11.45;100.00;99902.22;5017909;28;20076;-65
2023/04/23 00:48:10;;;;;;;11.40;6.15;;;;;;;11.37;100.00;99903.03;5019742;28;20038;-64
2023/04/23 00:50:36;;;;;;;13.70;6.80;;;;;;;11.48;100.00;99910.69;5018022;28;20099;-63
2023/04/23 00:53:01;;;;;;;13.38;6.75;;;;;;;11.59;100.00;99900.75;5018396;28;20042;-63
2023/04/23 00:55:27;;;;;;;13.20;6.97;;;;;;;11.44;100.00;99912.00;5017371;28;20040;-66
2023/04/23 00:57:53;;;;;;;11.52;6.55;;;;;;;11.42;100.00;99908.66;5018484;28;20030;-66
2023/04/23 01:00:19;;;;;;;8.23;5.78;;;;;;;11.40;100.00;99917.78;5016514;28;20129;-66
2023/04/23 01:02:47;;;;;;;9.57;5.75;;;;;;;11.30;100.00;99914.44;5018512;28;20336;-65
2023/04/23 01:05:14;;;;;;;10.25;5.80;;;;;;;11.59;100.00;99914.00;5018084;28;20097;-66
2023/04/23 01:07:42;;;;;;;7.40;5.80;;;;;;;11.85;100.00;99914.72;5018392;28;20041;-66
2023/04/23 01:10:08;;;;;;;7.28;5.38;;;;;;;12.09;100.00;99904.09;5017629;28;20050;-66
2023/04/23 01:12:34;;;;;;;11.77;6.07;;;;;;;12.34;99.98;99912.00;5020612;28;20247;-64
2023/04/23 01:15:00;;;;;;;9.40;5.65;;;;;;;12.60;98.73;99909.16;5018502;28;20049;-64
2023/04/23 01:17:25;;;;;;;23.13;9.18;;;;;;;12.72;97.29;99913.94;5019580;28;20058;-64
2023/04/23 01:19:51;;;;;;;34.30;14.93;;;;;;;12.82;96.60;99908.41;5016180;28;20100;-64
2023/04/23 01:22:17;;;;;;;22.48;9.38;;;;;;;12.97;96.20;99913.81;5017183;28;20350;-64
2023/04/23 01:24:42;;;;;;;14.30;6.95;;;;;;;13.05;95.40;99914.59;5018002;28;20053;-64
2023/04/23 01:27:09;;;;;;;13.13;6.50;;;;;;;13.16;95.31;99912.56;5017522;28;20038;-63
2023/04/23 01:29:34;;;;;;;8.52;5.35;;;;;;;13.14;94.12;99903.94;5017749;28;20037;-64
2023/04/23 01:32:01;;;;;;;6.75;4.80;;;;;;;12.98;94.71;99905.69;5017491;28;20215;-65
2023/04/23 01:34:29;;;;;;;8.82;5.57;;;;;;;12.89;94.47;99901.41;5017307;28;20049;-63
2023/04/23 01:36:55;;;;;;;8.18;5.47;;;;;;;12.71;94.96;99909.63;5019104;28;20026;-64
2023/04/23 01:39:21;;;;;;;9.07;5.43;;;;;;;12.50;95.81;99901.38;5018061;28;20038;-64
2023/04/23 01:41:47;;;;;;;7.50;5.10;;;;;;;12.52;95.82;99910.00;5018217;28;20040;-65
2023/04/23 01:44:12;;;;;;;7.30;5.40;;;;;;;12.47;96.36;99913.13;5017154;28;20077;-65
2023/04/23 01:46:38;;;;;;;7.47;5.10;;;;;;;12.60;95.62;99909.97;5017736;28;20332;-64
2023/04/23 01:49:03;;;;;;;6.93;5.05;;;;;;;12.71;95.23;99914.09;5017940;28;20350;-64
2023/04/23 01:51:29;;;;;;;7.00;5.18;;;;;;;12.77;94.70;99913.41;5017639;28;20042;-64
2023/04/23 01:53:55;;;;;;;9.98;5.57;;;;;;;12.88;94.79;99912.19;5021444;28;20379;-64
2023/04/23 01:56:27;;;;;;;8.70;6.18;;;;;;;13.01;94.03;99918.63;5022091;28;20068;-67
2023/04/23 01:58:52;;;;;;;9.57;5.43;;;;;;;13.11;93.39;99915.75;5021252;28;20231;-65
2023/04/23 02:01:18;;;;;;;9.65;5.80;;;;;;;13.11;92.97;99913.09;5021673;28;20042;-66
2023/04/23 02:03:44;;;;;;;10.27;5.93;;;;;;;13.19;92.83;99923.72;5021189;28;20046;-67
2023/04/23 02:06:10;;;;;;;12.23;5.82;;;;;;;13.22;92.79;99920.69;5021492;28;20029;-66
2023/04/23 02:08:37;;;;;;;9.10;5.50;;;;;;;13.26;92.89;99921.19;5022280;28;20053;-66
2023/04/23 02:11:05;;;;;;;11.00;6.30;;;;;;;13.30;92.31;99925.16;5020986;28;20048;-66
2023/04/23 02:13:30;;;;;;;8.50;6.10;;;;;;;13.33;92.33;99927.47;5021100;28;20366;-65
2023/04/23 02:15:56;;;;;;;7.80;6.53;;;;;;;13.38;92.31;99920.59;5019942;28;20236;-65
2023/04/23 02:18:21;;;;;;;10.77;6.75;;;;;;;13.41;92.40;99925.56;5021125;28;20049;-65
2023/04/23 02:20:47;;;;;;;8.25;5.97;;;;;;;13.44;92.01;99927.06;5021234;28;21091;-65
2023/04/23 02:23:12;;;;;;;12.40;6.95;;;;;;;13.46;91.89;99925.03;5020818;28;20038;-65
2023/04/23 02:25:38;;;;;;;9.55;6.50;;;;;;;13.47;92.28;99924.03;5020373;28;20250;-64
2023/04/23 02:28:07;;;;;;;10.50;6.07;;;;;;;13.51;91.85;99924.50;5019714;28;20347;-65
2023/04/23 02:30:33;;;;;;;10.05;6.25;;;;;;;13.53;92.46;99922.53;5020216;28;20339;-66
2023/04/23 02:32:59;;;;;;;11.45;6.32;;;;;;;13.55;92.33;99924.03;5022643;28;20688;-65
2023/04/23 02:35:25;;;;;;;7.20;6.00;;;;;;;13.58;93.13;99925.50;5020993;28;20065;-65
2023/04/23 02:37:53;;;;;;;9.30;5.70;;;;;;;13.59;93.71;99932.47;5020072;28;20337;-65
2023/04/23 02:40:18;;;;;;;9.30;5.95;;;;;;;13.60;93.66;99926.16;5021945;28;20097;-66
2023/04/23 02:42:44;;;;;;;9.13;6.32;;;;;;;13.45;93.14;99903.94;5019709;28;20045;-65
2023/04/23 02:45:10;;;;;;;9.43;6.05;;;;;;;13.49;92.96;99926.53;5018539;28;20375;-64
2023/04/23 02:47:35;;;;;;;11.63;6.38;;;;;;;13.44;93.30;99932.38;5019794;28;20045;-65
2023/04/23 02:50:04;;;;;;;10.50;5.95;;;;;;;13.36;93.12;99935.91;5019510;28;20068;-65
2023/04/23 02:52:30;;;;;;;9.45;6.32;;;;;;;13.30;93.78;99931.28;5019651;28;20101;-64
2023/04/23 02:54:55;;;;;;;7.28;5.50;;;;;;;13.21;93.72;99931.50;5020298;28;20048;-65
2023/04/23 02:57:21;;;;;;;9.02;5.47;;;;;;;13.12;94.26;99928.03;5019002;28;20099;-65
2023/04/23 02:59:46;;;;;;;8.85;5.10;;;;;;;13.07;94.16;99936.53;5019451;28;20041;-64
2023/04/23 03:02:11;;;;;;;10.15;6.10;;;;;;;13.02;94.55;99938.88;5020788;28;20030;-64
2023/04/23 03:04:37;;;;;;;11.60;6.38;;;;;;;12.88;94.29;99925.50;5020081;28;20340;-65
2023/04/23 03:07:02;;;;;;;7.40;6.25;;;;;;;12.79;94.01;99949.44;5019785;28;20036;-65
2023/04/23 03:09:28;;;;;;;9.63;6.03;;;;;;;12.73;94.49;99949.28;5020370;28;20279;-65
2023/04/23 03:11:53;;;;;;;11.57;7.20;;;;;;;12.68;94.50;99948.97;5020621;28;20044;-65
2023/04/23 03:14:19;;;;;;;10.82;7.20;;;;;;;12.57;94.63;99950.16;5019545;28;20037;-66
2023/04/23 03:16:44;;;;;;;9.75;7.25;;;;;;;12.47;95.21;99944.19;5019058;28;20072;-64
2023/04/23 03:19:09;;;;;;;8.82;6.93;;;;;;;12.45;95.84;99952.31;5020808;28;20095;-65
2023/04/23 03:21:35;;;;;;;10.20;6.80;;;;;;;12.28;96.12;99949.84;5019664;28;20040;-65
2023/04/23 03:24:00;;;;;;;9.75;7.07;;;;;;;11.92;97.96;99960.00;5020018;28;20034;-65
2023/04/23 03:26:26;;;;;;;9.90;7.53;;;;;;;11.57;100.00;99951.31;5020268;28;20056;-66
2023/04/23 03:28:52;;;;;;;11.82;7.45;;;;;;;11.55;100.00;99955.94;5019524;28;20041;-64
2023/04/23 03:31:18;;;;;;;10.55;7.22;;;;;;;11.43;100.00;99965.16;5020016;28;20048;-65
2023/04/23 03:33:43;;;;;;;11.23;7.80;;;;;;;11.41;100.00;99964.50;5017997;28;20053;-65
2023/04/23 03:36:08;;;;;;;10.52;7.43;;;;;;;11.50;100.00;99964.41;5018782;28;20030;-65
2023/04/23 03:38:34;;;;;;;12.60;8.00;;;;;;;11.63;100.00;99955.13;5019690;28;20037;-65
2023/04/23 03:40:59;;;;;;;14.32;8.70;;;;;;;11.66;100.00;99960.09;5020043;28;20029;-65
2023/04/23 03:43:25;;;;;;;15.75;10.00;;;;;;;11.65;100.00;99966.41;5019557;28;20040;-65
2023/04/23 03:45:50;;;;;;;16.02;10.98;;;;;;;11.57;100.00;99959.25;5019056;28;20082;-65
2023/04/23 03:48:15;;;;;;;21.08;10.90;;;;;;;11.60;100.00;99963.41;5019240;28;20114;-65
2023/04/23 03:50:41;;;;;;;17.33;9.90;;;;;;;11.85;100.00;99964.31;5018700;28;20072;-64
2023/04/23 03:53:08;;;;;;;12.48;8.32;;;;;;;11.95;100.00;99959.66;5018232;28;20075;-65
2023/04/23 03:55:34;;;;;;;10.77;7.85;;;;;;;12.07;99.92;99963.66;5018406;28;20359;-65
2023/04/23 03:58:00;;;;;;;11.73;8.20;;;;;;;11.76;100.00;99936.91;5019729;28;20048;-64
2023/04/23 04:00:26;;;;;;;11.63;8.77;;;;;;;11.85;100.00;99966.97;5019130;28;20250;-66
2023/04/23 04:02:51;;;;;;;11.20;8.57;;;;;;;11.94;100.00;99973.94;5018731;28;20045;-65
2023/04/23 04:05:17;;;;;;;13.82;9.55;;;;;;;12.12;100.00;99970.13;5018871;28;20037;-66
2023/04/23 04:07:42;;;;;;;12.35;7.93;;;;;;;12.30;99.32;99971.75;5018086;28;20038;-65
2023/04/23 04:10:08;;;;;;;10.38;7.72;;;;;;;12.35;98.32;99970.25;5016680;28;20076;-64
2023/04/23 04:12:33;;;;;;;13.10;8.57;;;;;;;12.35;97.99;99975.56;5019227;28;20040;-66
2023/04/23 04:14:59;;;;;;;12.30;8.00;;;;;;;12.28;98.35;99984.38;5017739;28;20552;-64
2023/04/23 04:17:24;;;;;;;10.60;7.20;;;;;;;12.30;98.16;99977.91;5018077;28;20072;-65
2023/04/23 04:19:50;;;;;;;11.18;7.57;;;;;;;12.43;98.76;99983.53;5019045;28;20064;-65
2023/04/23 04:22:16;;;;;;;11.35;7.93;;;;;;;12.38;97.95;99988.50;5020040;28;20030;-65
2023/04/23 04:24:42;;;;;;;12.88;8.30;;;;;;;12.43;98.21;99996.81;5019964;28;20076;-65
2023/04/23 04:27:08;;;;;;;13.60;8.13;;;;;;;12.43;98.71;99990.66;5019154;28;20034;-65
2023/04/23 04:29:33;;;;;;;11.60;7.32;;;;;;;12.60;97.63;99992.34;5018587;28;20141;-64
2023/04/23 04:32:00;;;;;;;10.45;7.80;;;;;;;12.76;96.74;99991.47;5019363;28;20335;-64
2023/04/23 04:34:26;;;;;;;12.05;7.75;;;;;;;12.94;97.18;99999.22;5019012;28;20358;-65
2023/04/23 04:36:52;;;;;;;9.95;7.45;;;;;;;12.93;96.52;100000.22;5018118;28;20303;-65
2023/04/23 04:39:18;;;;;;;13.43;8.27;;;;;;;13.00;96.56;100004.69;5018803;28;20075;-66
2023/04/23 04:41:44;;;;;;;11.07;7.22;;;;;;;13.10;95.89;100005.31;5019422;28;20045;-65
2023/04/23 04:44:09;;;;;;;14.38;8.23;;;;;;;13.09;94.87;100005.47;5017612;28;20072;-65
2023/04/23 04:46:39;;;;;;;12.15;7.15;;;;;;;13.16;94.59;100011.78;5017315;28;20034;-65
2023/04/23 04:49:11;;;;;;;9.90;6.97;;;;;;;13.22;95.54;100004.97;5017116;28;20033;-65
2023/04/23 04:51:38;;;;;;;11.45;6.90;;;;;;;13.38;96.12;100018.19;5018146;28;20076;-65
2023/04/23 04:54:05;;;;;;;9.75;6.43;;;;;;;13.55;94.17;100024.28;5019923;28;20045;-64
2023/04/23 04:56:30;;;;;;;9.98;6.13;;;;;;;13.63;94.31;100021.59;5017956;28;20033;-65
2023/04/23 04:58:56;;;;;;;9.40;5.70;;;;;;;13.68;89.79;100028.03;5018232;28;20072;-65
2023/04/23 05:01:25;;;;;;;11.70;5.93;;;;;;;13.73;90.12;100023.03;5017770;28;20033;-65
2023/04/23 05:03:51;;;;;;;10.00;6.05;;;;;;;13.71;90.01;100025.03;5018039;28;20037;-64
2023/04/23 05:06:16;;;;;;;10.32;6.32;;;;;;;13.87;91.66;100029.41;5017918;28;20335;-65
2023/04/23 05:08:46;;;;;;;9.07;5.60;;;;;;;13.96;91.18;100028.34;5018699;28;20042;-66
2023/04/23 05:11:16;;;;;;;8.32;5.65;;;;;;;14.15;90.01;100034.22;5017475;28;20101;-65
2023/04/23 05:13:41;;;;;;;8.95;5.05;;;;;;;14.24;88.01;100033.16;5018260;28;20068;-65
2023/04/23 05:16:07;;;;;;;10.55;5.90;;;;;;;14.48;87.52;100035.63;5016883;28;20049;-65
2023/04/23 05:18:32;;;;;;;8.27;5.70;;;;;;;14.78;87.04;100041.06;5017144;28;20064;-65
2023/04/23 05:20:58;;;;;;;6.55;5.20;;;;;;;15.02;84.72;100044.28;5018158;28;20064;-65
2023/04/23 05:23:23;;;;;;;8.45;5.47;;;;;;;15.07;84.38;100046.41;5018759;28;20363;-66
2023/04/23 05:25:52;;;;;;;6.78;5.30;;;;;;;15.05;83.41;100042.28;5017295;28;20145;-65
2023/04/23 05:28:17;;;;;;;6.97;5.18;;;;;;;15.04;83.91;100048.63;5022592;28;20037;-67
2023/04/23 05:30:43;;;;;;;8.27;5.10;;;;;;;14.97;83.56;100048.53;5022002;28;20412;-66
2023/04/23 05:33:08;;;;;;;7.78;5.40;;;;;;;14.93;82.75;100050.72;5021037;28;20057;-67
2023/04/23 05:35:34;;;;;;;6.63;5.22;;;;;;;14.93;83.12;100045.38;5021263;28;20063;-65
2023/04/23 05:38:00;;;;;;;9.10;5.28;;;;;;;14.78;85.64;100047.22;5021760;28;20389;-65
2023/04/23 05:40:25;;;;;;;10.23;6.15;;;;;;;14.81;85.94;100049.53;5021996;28;20052;-67
2023/04/23 05:42:51;;;;;;;11.30;6.05;;;;;;;14.82;86.38;100048.50;5020204;28;20319;-67
2023/04/23 05:45:16;;;;;;;10.27;7.18;;;;;;;14.77;86.75;100042.06;5019792;28;20223;-65
2023/04/23 05:47:42;;;;;;;7.68;6.05;;;;;;;14.99;85.65;100054.50;5020705;28;20040;-66
2023/04/23 05:50:07;;;;;;;9.18;5.90;;;;;;;15.13;84.51;100055.50;5020268;28;20029;-65
2023/04/23 05:52:36;;;;;;;9.52;5.93;;;;;;;15.27;83.79;100054.69;5021631;28;20096;-67
2023/04/23 05:55:02;;;;;;;8.60;6.00;;;;;;;15.35;82.44;100049.25;5022024;28;20080;-65
2023/04/23 05:57:27;;;;;;;10.07;6.35;;;;;;;15.58;83.15;100059.84;5020971;28;20262;-68
2023/04/23 05:59:52;;;;;;;9.40;6.50;;;;;;;15.87;81.94;100061.66;5022411;28;20088;-68
2023/04/23 06:02:18;;;;;;;11.30;6.32;;;;;;;16.06;80.70;100065.53;5021215;28;20037;-68
2023/04/23 06:04:44;;;;;;;8.63;5.32;;;;;;;16.29;78.11;100060.84;5021702;28;20224;-68
2023/04/23 06:07:09;;;;;;;9.75;5.38;;;;;;;16.63;76.93;100059.28;5021743;28;20071;-68
2023/04/23 06:09:34;;;;;;;11.93;5.07;;;;;;;16.84;73.81;100061.97;5020729;28;20940;-68
2023/04/23 06:12:02;;;;;;;8.38;4.72;;;;;;;16.86;74.45;100065.28;5020367;28;20168;-68
2023/04/23 06:14:27;;;;;;;9.52;5.28;;;;;;;17.16;72.42;100060.53;5019434;28;20318;-68
2023/04/23 06:16:52;;;;;;;8.57;5.35;;;;;;;17.29;71.23;100057.09;5019060;28;20058;-68
2023/04/23 06:19:18;;;;;;;7.40;4.40;;;;;;;17.44;70.30;100055.94;5020551;28;20347;-68
2023/04/23 06:21:43;;;;;;;8.68;4.90;;;;;;;17.59;70.00;100046.94;5022233;28;20053;-68
2023/04/23 06:24:09;;;;;;;7.47;4.95;;;;;;;17.79;69.37;100054.09;5020291;28;20052;-68
2023/04/23 06:26:34;;;;;;;6.95;5.50;;;;;;;18.01;69.00;100057.44;5022506;28;20038;-68
2023/04/23 06:29:00;;;;;;;8.20;5.50;;;;;;;18.19;68.12;100054.19;5020852;28;20347;-68
2023/04/23 06:31:26;;;;;;;5.22;4.38;;;;;;;18.39;66.39;100063.06;5019386;28;20034;-68
2023/04/23 06:33:51;;;;;;;9.77;4.47;;;;;;;18.59;64.88;100054.22;5019584;28;20029;-68
2023/04/23 06:36:17;;;;;;;6.05;4.55;;;;;;;18.49;65.07;100060.81;5020166;28;20048;-68
2023/04/23 06:38:43;;;;;;;5.75;4.90;;;;;;;17.99;66.98;100053.31;5020658;28;20091;-68
2023/04/23 06:41:09;;;;;;;8.55;4.72;;;;;;;17.69;67.96;100063.53;5020723;28;20346;-68
2023/04/23 06:43:35;;;;;;;8.10;5.35;;;;;;;17.49;69.10;100060.72;5021169;28;20036;-68
2023/04/23 06:46:00;;;;;;;4.90;4.40;;;;;;;17.48;69.93;100056.38;5019588;28;20271;-68
2023/04/23 06:48:26;;;;;;;7.07;5.13;;;;;;;17.45;69.78;100059.47;5018676;28;20038;-68
2023/04/23 06:50:51;;;;;;;6.78;5.10;;;;;;;17.49;69.91;100060.72;5019443;28;20029;-68
2023/04/23 06:53:17;;;;;;;6.90;4.50;;;;;;;17.54;70.12;100059.09;5021045;28;20041;-68
2023/04/23 06:55:42;;;;;;;6.65;4.20;;;;;;;17.60;69.33;100054.78;5020039;28;20045;-68
2023/04/23 06:58:07;;;;;;;6.75;4.70;;;;;;;17.74;68.03;100058.41;5019865;28;20045;-68
2023/04/23 07:00:33;;;;;;;6.80;5.00;;;;;;;17.74;68.31;100061.06;5020235;28;20222;-68
2023/04/23 07:02:59;;;;;;;6.85;5.15;;;;;;;17.99;67.05;100048.78;5019049;28;20046;-68
2023/04/23 07:05:24;;;;;;;7.47;5.53;;;;;;;18.16;66.21;100055.41;5018979;28;20113;-68
2023/04/23 07:07:50;;;;;;;6.68;4.78;;;;;;;18.35;67.84;100052.97;5020355;28;20042;-68
2023/04/23 07:10:15;;;;;;;5.72;4.13;;;;;;;18.56;66.23;100058.13;5020301;28;20151;-68
2023/04/23 07:12:40;;;;;;;5.63;4.60;;;;;;;18.10;65.01;100052.72;5020398;28;20036;-68
2023/04/23 07:15:07;;;;;;;7.25;4.50;;;;;;;18.40;63.74;100059.38;5020060;28;20052;-68
2023/04/23 07:17:33;;;;;;;7.25;4.47;;;;;;;18.52;62.71;100057.72;5020010;28;20402;-68
2023/04/23 07:19:58;;;;;;;7.03;3.80;;;;;;;18.55;62.52;100051.13;5020073;28;20034;-68
2023/04/23 07:22:25;;;;;;;5.82;4.57;;;;;;;18.56;60.28;100052.78;5020776;28;20037;-68
2023/04/23 07:24:51;;;;;;;7.10;3.95;;;;;;;18.14;59.72;100052.13;5019471;28;20033;-68
2023/04/23 07:27:18;;;;;;;7.55;4.13;;;;;;;18.30;61.59;100047.41;5020166;28;20053;-68
2023/04/23 07:29:43;;;;;;;4.88;4.10;;;;;;;18.33;61.40;100049.66;5019565;28;20116;-68
2023/04/23 07:32:08;;;;;;;5.20;4.05;;;;;;;18.66;60.29;100044.34;5020030;28;20393;-68
2023/04/23 07:34:37;;;;;;;6.80;4.55;;;;;;;18.34;60.15;100044.09;5019282;28;20133;-68
2023/04/23 07:37:02;;;;;;;5.95;4.05;;;;;;;18.43;59.55;100040.19;5019769;28;20101;-68
2023/04/23 07:39:28;;;;;;;5.25;3.67;;;;;;;18.71;57.75;100037.31;5019479;28;20348;-68
2023/04/23 07:41:54;;;;;;;6.28;3.42;;;;;;;18.65;57.78;100045.38;5019392;28;20235;-68
2023/04/23 07:44:19;;;;;;;7.15;4.22;;;;;;;19.07;56.90;100041.41;5019451;28;20320;-68
2023/04/23 07:46:44;;;;;;;5.65;3.95;;;;;;;19.26;60.53;100042.41;5019844;28;20034;-68
2023/04/23 07:49:10;;;;;;;4.95;3.40;;;;;;;18.75;59.03;100040.44;5018158;28;20153;-68
2023/04/23 07:51:35;;;;;;;5.43;3.70;;;;;;;18.83;58.99;100040.22;5019566;28;20516;-68
2023/04/23 07:54:01;;;;;;;8.00;4.07;;;;;;;18.82;60.46;100035.91;5018188;28;20251;-68
2023/04/23 07:56:26;;;;;;;5.10;3.70;;;;;;;18.77;60.28;100030.31;5019803;28;20291;-68
2023/04/23 07:58:57;;;;;;;4.82;4.30;;;;;;;19.16;60.67;100034.78;5018731;28;20336;-68
2023/04/23 08:01:22;;;;;;;8.60;4.50;;;;;;;19.36;59.33;100032.88;5018872;28;20037;-68
2023/04/23 08:03:47;;;;;;;7.78;4.10;;;;;;;19.64;57.39;100039.81;5019158;28;20248;-68
2023/04/23 08:06:13;;;;;;;11.80;5.03;;;;;;;19.88;56.54;100031.03;5018807;28;20038;-68
2023/04/23 08:08:38;;;;;;;6.18;4.43;;;;;;;20.11;55.27;100037.72;5019316;28;20037;-68
2023/04/23 08:11:05;;;;;;;6.47;4.40;;;;;;;20.23;54.97;100038.66;5018901;28;20034;-68
2023/04/23 08:13:31;;;;;;;6.53;4.80;;;;;;;20.48;54.95;100027.97;5019431;28;20051;-68
2023/04/23 08:15:56;;;;;;;9.00;4.65;;;;;;;20.51;53.86;100024.84;5019198;28;20065;-68
2023/04/23 08:18:21;;;;;;;9.15;5.07;;;;;;;20.32;53.22;100026.59;5018154;28;20041;-68
2023/04/23 08:20:47;;;;;;;7.25;4.78;;;;;;;20.25;53.91;100025.84;5018870;28;20045;-68
2023/04/23 08:23:13;;;;;;;6.07;4.45;;;;;;;19.67;56.38;100025.94;5018146;28;20076;-68
2023/04/23 08:25:38;;;;;;;7.07;3.85;;;;;;;19.75;55.03;100031.06;5019434;28;20319;-68
2023/04/23 08:28:04;;;;;;;5.25;3.75;;;;;;;19.06;53.14;100029.03;5018471;28;20037;-68
2023/04/23 08:30:29;;;;;;;7.32;4.00;;;;;;;19.51;52.90;100019.19;5018087;28;20263;-68
2023/04/23 08:32:56;;;;;;;7.20;4.53;;;;;;;19.56;55.34;100024.75;5019197;28;20041;-68
2023/04/23 08:35:22;;;;;;;6.47;4.65;;;;;;;19.56;53.96;100023.94;5018795;28;20267;-68
2023/04/23 08:37:47;;;;;;;7.50;3.92;;;;;;;19.57;53.87;100010.28;5018484;28;20320;-68
2023/04/23 08:40:13;;;;;;;6.85;4.45;;;;;;;19.79;53.20;100015.38;5017853;28;20026;-68
2023/04/23 08:42:48;;;;;;;8.43;4.82;;;;;;;19.99;53.09;100014.22;5017684;28;20034;-69
2023/04/23 08:45:14;;;;;;;6.70;4.50;;;;;;;20.11;53.50;100014.34;5022135;28;20699;-68
2023/04/23 08:47:43;;;;;;;4.80;3.47;;;;;;;19.91;51.39;100011.78;5019756;28;20026;-68
2023/04/23 08:50:11;;;;;;;6.32;3.78;;;;;;;19.64;49.72;100012.94;5019030;28;20038;-68
2023/04/23 08:52:41;;;;;;;6.35;3.35;;;;;;;19.77;47.74;100011.03;5018641;28;20034;-68
2023/04/23 08:55:11;;;;;;;9.15;3.42;;;;;;;19.65;47.27;100015.41;5018584;28;20048;-68
2023/04/23 08:57:38;;;;;;;7.45;3.20;;;;;;;19.53;48.04;100013.63;5019391;28;20030;-68
2023/04/23 09:00:05;;;;;;;6.65;3.70;;;;;;;19.62;47.12;99985.47;5017577;28;20101;-68
2023/04/23 09:02:32;;;;;;;5.63;3.53;;;;;;;19.90;46.67;99998.56;5017349;28;20321;-68
2023/04/23 09:04:58;;;;;;;6.70;3.97;;;;;;;20.08;48.14;99993.28;5016559;28;20100;-68
2023/04/23 09:07:24;;;;;;;5.45;3.40;;;;;;;20.07;48.34;99987.06;5018169;28;20037;-68
2023/04/23 09:09:50;;;;;;;6.47;2.90;;;;;;;19.54;39.03;99993.78;5018234;28;20393;-68
2023/04/23 09:12:15;;;;;;;3.88;2.30;;;;;;;19.13;35.79;99989.59;5018349;28;20040;-68
2023/04/23 09:14:41;;;;;;;6.80;2.97;;;;;;;18.98;40.24;99980.97;5017479;28;20076;-68
2023/04/23 09:17:06;;;;;;;4.57;2.72;;;;;;;18.76;40.38;99991.94;5017085;28;20109;-68
2023/04/23 09:19:31;;;;;;;3.83;2.40;;;;;;;18.36;40.45;99988.41;5017532;28;20049;-68
2023/04/23 09:21:59;;;;;;;5.72;3.28;;;;;;;18.62;40.41;99986.78;5018545;28;20045;-68
2023/04/23 09:24:25;;;;;;;5.32;2.83;;;;;;;18.97;39.19;99985.50;5017442;28;20232;-68
2023/04/23 09:26:52;;;;;;;4.15;2.47;;;;;;;18.75;38.96;99984.94;5017919;28;20030;-68
2023/04/23 09:29:20;;;;;;;6.05;2.05;;;;;;;18.45;40.05;99979.13;5016495;28;20041;-68
2023/04/23 09:32:03;;;;;;;4.80;3.00;;;;;;;18.75;39.23;99976.88;5017457;28;20040;-68
2023/04/23 09:34:28;;;;;;;4.35;2.53;;;;;;;19.00;35.80;99976.22;5016822;28;20061;-68
2023/04/23 09:36:53;;;;;;;4.43;2.38;;;;;;;18.90;38.20;99979.31;5017007;28;20053;-68
2023/04/23 09:39:23;;;;;;;4.50;3.08;;;;;;;18.55;41.07;99972.53;5017225;28;20056;-68
2023/04/23 09:41:51;;;;;;;4.57;3.30;;;;;;;18.57;41.11;99968.59;5017760;28;20377;-68
2023/04/23 09:44:25;;;;;;;3.78;2.53;;;;;;;18.14;46.28;99968.22;5017515;28;20233;-68
2023/04/23 09:46:50;;;;;;;4.55;2.40;;;;;;;18.26;43.35;99965.75;5018985;28;20038;-68
2023/04/23 09:49:16;;;;;;;4.85;3.00;;;;;;;18.22;44.37;99953.78;5018583;28;20237;-68
2023/04/23 09:51:46;;;;;;;4.55;2.80;;;;;;;18.57;44.90;99957.06;5018235;28;20034;-68
2023/04/23 09:54:21;;;;;;;6.50;3.38;;;;;;;18.27;44.37;99965.53;5017302;28;20060;-68
2023/04/23 09:56:55;;;;;;;4.53;2.63;;;;;;;17.96;44.39;99949.25;5019534;28;20038;-68
2023/04/23 09:59:26;;;;;;;5.45;2.90;;;;;;;18.13;42.91;99948.63;5016430;28;20042;-68
2023/04/23 10:01:53;;;;;;;3.53;2.70;;;;;;;18.19;43.21;99950.47;5016385;28;20316;-68
2023/04/23 10:04:21;;;;;;;4.63;2.70;;;;;;;18.22;41.04;99938.53;5016943;28;20315;-68
2023/04/23 10:06:58;;;;;;;4.45;3.20;;;;;;;18.47;42.65;99936.84;5016732;28;20033;-68
2023/04/23 10:09:26;;;;;;;4.15;2.90;;;;;;;18.67;42.22;99941.38;5021436;28;20049;-68
2023/04/23 10:11:57;;;;;;;5.68;3.20;;;;;;;18.72;42.47;99933.53;5018800;28;20034;-68
2023/04/23 10:14:24;;;;;;;4.93;3.20;;;;;;;18.68;44.72;99935.81;5019494;28;20030;-68
2023/04/23 10:16:52;;;;;;;4.93;3.50;;;;;;;18.06;43.31;99939.75;5021436;28;20072;-68
2023/04/23 10:19:22;;;;;;;5.18;3.38;;;;;;;17.95;45.18;99923.47;5021716;28;20080;-68
2023/04/23 10:21:59;;;;;;;5.43;3.13;;;;;;;18.11;44.19;99921.22;5021117;28;20072;-68
2023/04/23 10:24:27;;;;;;;4.78;3.10;;;;;;;18.18;45.29;99921.22;5020057;28;20124;-68
2023/04/23 10:26:56;;;;;;;5.88;3.38;;;;;;;18.14;43.19;99910.06;5025116;28;20389;-68
2023/04/23 10:29:27;;;;;;;6.03;3.40;;;;;;;18.36;43.20;99912.53;5019061;28;20042;-68
2023/04/23 10:31:58;;;;;;;5.72;3.20;;;;;;;18.29;44.47;99920.59;5019602;28;20336;-68
2023/04/23 10:34:25;;;;;;;9.13;3.35;;;;;;;18.21;45.13;99910.06;5023308;28;20033;-68
2023/04/23 10:36:52;;;;;;;7.60;3.53;;;;;;;18.35;45.20;99913.56;5021831;28;20091;-68
2023/04/23 10:39:19;;;;;;;4.43;2.88;;;;;;;18.28;45.04;99902.84;5020769;28;20061;-68
2023/04/23 10:41:46;;;;;;;8.00;3.33;;;;;;;18.40;43.98;99895.00;5019364;28;20048;-68
2023/04/23 10:44:16;;;;;;;7.43;3.50;;;;;;;18.57;43.52;99898.88;5020335;28;20042;-68
2023/04/23 10:47:00;;;;;;;5.05;3.22;;;;;;;18.40;44.94;99895.81;5020632;28;20033;-68
2023/04/23 10:49:30;;;;;;;7.95;3.42;;;;;;;18.64;44.82;99891.66;5021579;28;20030;-68
2023/04/23 10:52:06;;;;;;;9.05;3.35;;;;;;;18.74;44.98;99884.03;5021401;28;20278;-68
2023/04/23 10:54:34;;;;;;;6.65;3.15;;;;;;;18.55;44.23;99882.16;5019977;28;20048;-68
2023/04/23 10:57:04;;;;;;;5.63;3.40;;;;;;;18.67;44.78;99879.69;5020112;28;20105;-68
2023/04/23 10:59:35;;;;;;;8.10;3.58;;;;;;;18.70;43.83;99877.41;5018653;28;20375;-68
2023/04/23 11:02:10;;;;;;;6.05;3.60;;;;;;;18.43;47.93;99873.13;5019865;28;20382;-68
2023/04/23 11:04:52;;;;;;;7.22;3.75;;;;;;;18.37;48.01;99871.28;5019700;28;20053;-68
2023/04/23 11:07:18;;;;;;;5.43;3.40;;;;;;;18.43;46.05;99867.78;5021197;28;20057;-69
2023/04/23 11:09:47;;;;;;;5.35;3.42;;;;;;;18.67;44.95;99860.91;5019236;28;20045;-69
2023/04/23 11:12:25;;;;;;;6.07;2.90;;;;;;;18.62;44.74;99861.56;5019769;28;20034;-68
2023/04/23 11:14:53;;;;;;;6.00;3.33;;;;;;;18.43;44.53;99865.91;5019399;28;20045;-68
2023/04/23 11:17:43;;;;;;;6.53;3.30;;;;;;;18.60;42.65;99858.22;5019984;28;20141;-68
2023/04/23 11:20:12;;;;;;;6.72;4.13;;;;;;;18.68;42.21;99851.84;5018954;28;20033;-68
2023/04/23 11:22:46;;;;;;;4.43;3.20;;;;;;;18.63;44.88;99855.16;5021984;28;20044;-68
2023/04/23 11:25:19;;;;;;;5.95;3.30;;;;;;;18.73;45.06;99850.19;5037030;28;20380;-69